createdAt,value
2019-05-21T00:00:50.486Z,18.10
2019-05-21T00:03:19.023Z,22.53
2019-05-21T00:05:47.531Z,19.27
2019-05-21T00:08:15.991Z,26.42
2019-05-21T00:10:44.499Z,32.55
2019-05-21T00:13:12.982Z,28.80
2019-05-21T00:15:41.490Z,25.05
2019-05-21T00:18:10.031Z,18.35
2019-05-21T00:20:38.500Z,26.60
2019-05-21T00:23:07.014Z,26.05
2019-05-21T00:25:35.562Z,31.80
2019-05-21T00:28:27.495Z,28.32
2019-05-21T00:31:32.505Z,33.88
2019-05-21T00:34:44.020Z,26.93
2019-05-21T00:37:44.062Z,21.97
2019-05-21T00:40:48.966Z,24.92
2019-05-21T00:43:19.579Z,27.25
2019-05-21T00:45:48.038Z,21.30
2019-05-21T00:48:16.546Z,25.97
2019-05-21T00:50:45.029Z,19.45
2019-05-21T00:53:13.518Z,23.30
2019-05-21T00:55:42.053Z,24.97
2019-05-21T00:58:10.502Z,17.98
2019-05-21T01:00:39.173Z,23.80
2019-05-21T01:03:07.643Z,18.07
2019-05-21T01:05:36.202Z,15.05
2019-05-21T01:08:05.029Z,15.58
2019-05-21T01:10:33.597Z,19.82
2019-05-21T01:13:02.072Z,24.10
2019-05-21T01:15:30.559Z,24.05
2019-05-21T01:17:59.034Z,20.43
2019-05-21T01:20:27.539Z,19.23
2019-05-21T01:22:56.182Z,20.30
2019-05-21T01:25:24.756Z,15.83
2019-05-21T01:27:53.230Z,13.93
2019-05-21T01:30:21.713Z,16.60
2019-05-21T01:32:50.208Z,17.62
2019-05-21T01:35:18.729Z,17.90
2019-05-21T01:37:47.207Z,17.07
2019-05-21T01:40:15.712Z,17.47
2019-05-21T01:42:44.182Z,52.98
2019-05-21T01:45:13.053Z,43.60
2019-05-21T01:47:41.527Z,21.60
2019-05-21T01:50:10.075Z,20.70
2019-05-21T01:52:38.578Z,22.60
2019-05-21T01:55:07.227Z,17.85
2019-05-21T01:57:35.705Z,20.97
2019-05-21T02:00:06.968Z,20.60
2019-05-21T02:02:35.470Z,17.55
2019-05-21T02:05:06.426Z,21.20
2019-05-21T02:07:34.934Z,22.13
2019-05-21T02:10:04.859Z,19.23
2019-05-21T02:12:33.431Z,21.48
2019-05-21T02:15:01.909Z,20.82
2019-05-21T02:17:30.461Z,20.97
2019-05-21T02:19:58.937Z,21.15
2019-05-21T02:22:27.501Z,22.62
2019-05-21T02:24:55.978Z,20.62
2019-05-21T02:27:24.449Z,21.33
2019-05-21T02:29:52.947Z,20.95
2019-05-21T02:32:21.419Z,20.32
2019-05-21T02:34:49.973Z,22.25
2019-05-21T02:37:18.442Z,20.10
2019-05-21T02:39:46.924Z,22.83
2019-05-21T02:42:15.399Z,23.75
2019-05-21T02:44:43.970Z,25.30
2019-05-21T02:47:12.518Z,25.97
2019-05-21T02:49:40.989Z,21.43
2019-05-21T02:52:09.543Z,22.55
2019-05-21T02:54:41.367Z,25.62
2019-05-21T02:57:08.308Z,34.40
2019-05-21T02:59:37.184Z,25.65
2019-05-21T03:02:07.327Z,24.18
2019-05-21T03:04:35.805Z,30.77
2019-05-21T03:07:20.069Z,31.40
2019-05-21T03:09:49.513Z,29.90
2019-05-21T03:12:19.016Z,29.93
2019-05-21T03:14:47.838Z,29.87
2019-05-21T03:17:16.254Z,29.57
2019-05-21T03:19:44.761Z,30.88
2019-05-21T03:22:13.310Z,31.48
2019-05-21T03:24:41.791Z,32.55
2019-05-21T03:27:10.325Z,44.33
2019-05-21T03:29:38.828Z,38.58
2019-05-21T03:32:07.363Z,31.70
2019-05-21T03:34:35.885Z,34.90
2019-05-21T03:37:04.993Z,33.95
2019-05-21T03:39:33.463Z,31.12
2019-05-21T03:42:02.275Z,44.70
2019-05-21T03:44:30.822Z,47.70
2019-05-21T03:46:59.348Z,54.58
2019-05-21T03:49:27.836Z,54.13
2019-05-21T03:51:56.312Z,52.45
2019-05-21T03:54:24.812Z,56.02
2019-05-21T03:56:53.279Z,42.45
2019-05-21T03:59:21.837Z,41.30
2019-05-21T04:01:50.383Z,35.03
2019-05-21T04:04:18.902Z,39.75
2019-05-21T04:06:51.979Z,38.60
2019-05-21T04:09:17.592Z,43.45
2019-05-21T04:11:46.093Z,44.23
2019-05-21T04:14:16.186Z,46.28
2019-05-21T04:16:49.450Z,50.78
2019-05-21T04:19:19.569Z,59.65
2019-05-21T04:21:48.095Z,54.20
2019-05-21T04:24:16.571Z,51.18
2019-05-21T04:26:45.046Z,47.90
2019-05-21T04:29:13.555Z,41.20
2019-05-21T04:31:42.032Z,38.87
2019-05-21T04:34:10.541Z,29.15
2019-05-21T04:36:39.036Z,31.13
2019-05-21T04:39:07.680Z,51.50
2019-05-21T04:41:36.193Z,37.53
2019-05-21T04:44:05.056Z,30.52
2019-05-21T04:46:33.595Z,34.67
2019-05-21T04:49:02.080Z,39.95
2019-05-21T04:51:30.586Z,37.58
2019-05-21T04:53:59.088Z,45.73
2019-05-21T04:56:27.579Z,34.40
2019-05-21T04:58:56.083Z,37.53
2019-05-21T05:01:24.555Z,32.50
2019-05-21T05:03:53.062Z,33.23
2019-05-21T05:06:21.548Z,39.70
2019-05-21T05:08:50.034Z,63.97
2019-05-21T05:11:18.541Z,78.85
2019-05-21T05:13:47.046Z,62.20
2019-05-21T05:16:15.495Z,54.85
2019-05-21T05:18:43.971Z,34.33
2019-05-21T05:21:12.460Z,38.78
2019-05-21T05:23:40.934Z,37.08
2019-05-21T05:26:09.441Z,37.98
2019-05-21T05:28:37.966Z,31.27
2019-05-21T05:31:06.450Z,43.25
2019-05-21T05:33:34.934Z,62.48
2019-05-21T05:36:03.416Z,62.03
2019-05-21T05:38:31.913Z,42.88
2019-05-21T05:41:00.384Z,29.90
2019-05-21T05:43:28.892Z,26.93
2019-05-21T05:45:57.434Z,13.38
2019-05-21T05:48:26.615Z,11.70
2019-05-21T05:50:59.135Z,12.40
2019-05-21T05:53:27.619Z,16.07
2019-05-21T05:55:56.095Z,22.53
2019-05-21T05:58:24.777Z,16.10
2019-05-21T06:00:53.290Z,22.40
2019-05-21T06:03:21.750Z,31.25
2019-05-21T06:05:50.256Z,37.65
2019-05-21T06:08:18.744Z,12.13
2019-05-21T06:10:47.266Z,25.12
2019-05-21T06:13:15.767Z,11.18
2019-05-21T06:15:44.284Z,55.12
2019-05-21T06:18:12.768Z,32.93
2019-05-21T06:20:41.238Z,8.68
2019-05-21T06:23:09.810Z,12.46
2019-05-21T06:25:38.344Z,20.85
2019-05-21T06:28:06.930Z,43.58
2019-05-21T06:30:35.396Z,52.50
2019-05-21T06:33:03.960Z,21.77
2019-05-21T06:35:32.451Z,14.85
2019-05-21T06:38:16.734Z,23.73
2019-05-21T06:40:31.181Z,18.02
2019-05-21T06:42:59.666Z,11.83
2019-05-21T06:45:28.354Z,7.58
2019-05-21T06:47:56.855Z,11.93
2019-05-21T06:50:25.341Z,15.60
2019-05-21T06:52:53.823Z,13.65
2019-05-21T06:55:22.325Z,11.63
2019-05-21T06:57:50.794Z,15.15
2019-05-21T07:00:19.566Z,15.32
2019-05-21T07:02:48.091Z,11.08
2019-05-21T07:05:16.576Z,4.07
2019-05-21T07:07:45.067Z,5.05
2019-05-21T07:10:14.273Z,11.80
2019-05-21T07:12:42.762Z,7.70
2019-05-21T07:15:11.409Z,8.90
2019-05-21T07:17:39.859Z,14.83
2019-05-21T07:20:09.696Z,14.98
2019-05-21T07:22:38.143Z,9.10
2019-05-21T07:25:07.077Z,11.28
2019-05-21T07:27:35.663Z,35.03
2019-05-21T07:30:07.307Z,9.95
2019-05-21T07:32:35.831Z,15.27
2019-05-21T07:35:06.122Z,8.73
2019-05-21T07:37:34.605Z,8.98
2019-05-21T07:40:03.094Z,12.30
2019-05-21T07:42:31.570Z,13.55
2019-05-21T07:45:00.039Z,10.35
2019-05-21T07:47:28.582Z,18.52
2019-05-21T07:49:57.052Z,11.63
2019-05-21T07:52:25.534Z,11.65
2019-05-21T07:54:54.012Z,10.87
2019-05-21T07:57:22.494Z,5.75
2019-05-21T07:59:50.968Z,4.70
2019-05-21T08:02:19.476Z,10.85
2019-05-21T08:04:48.064Z,8.30
2019-05-21T08:07:16.571Z,12.10
2019-05-21T08:09:45.038Z,5.35
2019-05-21T08:12:35.442Z,6.85
2019-05-21T08:14:43.754Z,11.45
2019-05-21T08:17:12.223Z,28.07
2019-05-21T08:19:40.723Z,11.65
2019-05-21T08:22:09.190Z,5.55
2019-05-21T08:24:37.690Z,9.63
2019-05-21T08:27:06.228Z,16.27
2019-05-21T08:29:34.722Z,7.08
2019-05-21T08:32:03.270Z,10.53
2019-05-21T08:34:31.766Z,34.80
2019-05-21T08:37:00.265Z,9.63
2019-05-21T08:39:29.450Z,12.40
2019-05-21T08:41:58.101Z,8.13
2019-05-21T08:44:26.611Z,9.10
2019-05-21T08:46:57.390Z,5.72
2019-05-21T08:49:25.885Z,9.57
2019-05-21T08:51:54.351Z,14.93
2019-05-21T08:54:40.716Z,4.97
2019-05-21T08:57:09.256Z,11.73
2019-05-21T08:59:37.766Z,8.43
2019-05-21T09:02:06.223Z,19.42
2019-05-21T09:04:45.830Z,6.17
2019-05-21T09:07:05.260Z,10.50
2019-05-21T09:09:49.445Z,6.72
2019-05-21T09:12:04.274Z,8.20
2019-05-21T09:14:33.851Z,7.55
2019-05-21T09:17:02.319Z,14.50
2019-05-21T09:19:30.852Z,12.37
2019-05-21T09:21:59.326Z,9.88
2019-05-21T09:24:27.796Z,5.50
2019-05-21T09:26:56.288Z,9.98
2019-05-21T09:29:24.766Z,8.83
2019-05-21T09:31:53.236Z,6.20
2019-05-21T09:34:21.707Z,22.13
2019-05-21T09:36:50.282Z,6.45
2019-05-21T09:39:18.746Z,7.57
2019-05-21T09:41:47.229Z,3.55
2019-05-21T09:44:15.715Z,11.12
2019-05-21T09:46:44.253Z,4.87
2019-05-21T09:49:12.751Z,3.87
2019-05-21T09:51:41.287Z,3.02
2019-05-21T09:54:09.770Z,4.64
2019-05-21T09:56:38.242Z,7.85
2019-05-21T09:59:22.599Z,2.98
2019-05-21T10:02:01.687Z,6.20
2019-05-21T10:04:30.222Z,5.80
2019-05-21T10:06:58.743Z,4.33
2019-05-21T10:09:27.251Z,6.08
2019-05-21T10:11:55.725Z,11.18
2019-05-21T10:14:24.237Z,5.37
2019-05-21T10:16:52.768Z,14.63
2019-05-21T10:19:21.266Z,17.60
2019-05-21T10:21:49.844Z,9.43
2019-05-21T10:24:18.395Z,5.92
2019-05-21T10:26:47.004Z,14.23
2019-05-21T10:29:15.532Z,8.20
2019-05-21T10:31:44.104Z,12.40
2019-05-21T10:34:13.466Z,10.08
2019-05-21T10:36:42.077Z,11.53
2019-05-21T10:39:10.917Z,13.20
2019-05-21T10:41:39.498Z,12.07
2019-05-21T10:44:08.070Z,17.70
2019-05-21T10:46:36.693Z,7.33
2019-05-21T10:49:05.430Z,12.80
2019-05-21T10:51:33.933Z,19.87
2019-05-21T10:54:03.612Z,8.03
2019-05-21T10:56:46.724Z,7.62
2019-05-21T10:59:02.476Z,7.42
2019-05-21T11:01:49.290Z,11.90
2019-05-21T11:04:22.663Z,10.08
2019-05-21T11:06:51.301Z,9.10
2019-05-21T11:09:21.559Z,8.43
2019-05-21T11:11:50.102Z,10.63
2019-05-21T11:14:18.648Z,6.55
2019-05-21T11:16:47.187Z,5.97
2019-05-21T11:19:15.757Z,12.25
2019-05-21T11:21:44.221Z,6.92
2019-05-21T11:24:12.803Z,11.00
2019-05-21T11:26:41.302Z,10.10
2019-05-21T11:29:09.787Z,6.43
2019-05-21T11:31:38.379Z,4.50
2019-05-21T11:34:07.098Z,4.20
2019-05-21T11:36:37.213Z,6.53
2019-05-21T11:39:07.819Z,7.03
2019-05-21T11:41:36.376Z,3.40
2019-05-21T11:44:05.353Z,19.40
2019-05-21T11:46:33.995Z,5.55
2019-05-21T11:49:02.638Z,5.37
2019-05-21T11:51:31.173Z,11.40
2019-05-21T11:53:59.689Z,82.02
2019-05-21T11:56:28.244Z,27.07
2019-05-21T11:58:58.253Z,9.13
2019-05-21T12:01:26.752Z,8.43
2019-05-21T12:03:55.490Z,5.22
2019-05-21T12:06:24.121Z,3.90
2019-05-21T12:08:56.761Z,9.90
2019-05-21T12:11:22.873Z,3.87
2019-05-21T12:13:51.357Z,6.17
2019-05-21T12:16:19.859Z,3.03
2019-05-21T12:18:48.324Z,1.57
2019-05-21T12:21:16.829Z,6.30
2019-05-21T12:23:45.319Z,4.27
2019-05-21T12:26:13.856Z,2.15
2019-05-21T12:28:42.365Z,4.78
2019-05-21T12:31:10.868Z,5.65
2019-05-21T12:33:40.399Z,2.02
2019-05-21T12:36:09.027Z,4.33
2019-05-21T12:38:37.554Z,4.05
2019-05-21T12:41:06.007Z,12.47
2019-05-21T12:43:34.508Z,2.92
2019-05-21T12:46:03.089Z,2.98
2019-05-21T12:48:31.593Z,3.20
2019-05-21T12:51:00.135Z,3.55
2019-05-21T12:53:28.608Z,9.28
2019-05-21T12:55:57.095Z,7.67
2019-05-21T12:58:25.593Z,7.12
2019-05-21T13:00:54.062Z,2.90
2019-05-21T13:03:22.548Z,5.45
2019-05-21T13:05:51.186Z,3.12
2019-05-21T13:08:20.067Z,4.62
2019-05-21T13:10:48.603Z,2.02
2019-05-21T13:13:19.954Z,2.13
2019-05-21T13:15:48.413Z,4.10
2019-05-21T13:18:16.943Z,4.58
2019-05-21T13:20:45.451Z,1.70
2019-05-21T13:23:14.017Z,2.70
2019-05-21T13:25:42.570Z,3.70
2019-05-21T13:28:11.039Z,6.10
2019-05-21T13:30:39.807Z,6.75
2019-05-21T13:33:08.345Z,12.90
2019-05-21T13:35:36.944Z,2.62
2019-05-21T13:38:05.663Z,3.02
2019-05-21T13:40:34.172Z,2.15
2019-05-21T13:43:02.753Z,5.92
2019-05-21T13:45:31.248Z,2.90
2019-05-21T13:47:59.714Z,6.28
2019-05-21T13:50:28.225Z,5.83
2019-05-21T13:52:56.750Z,4.40
2019-05-21T13:55:25.327Z,2.43
2019-05-21T13:57:53.853Z,5.87
2019-05-21T14:00:28.657Z,4.28
2019-05-21T14:02:57.183Z,5.37
2019-05-21T14:05:26.270Z,3.72
2019-05-21T14:07:54.747Z,5.65
2019-05-21T14:10:23.378Z,3.60
2019-05-21T14:12:51.953Z,4.33
2019-05-21T14:15:20.487Z,3.37
2019-05-21T14:17:49.059Z,5.50
2019-05-21T14:20:17.975Z,4.47
2019-05-21T14:22:46.462Z,14.63
2019-05-21T14:25:15.054Z,7.87
2019-05-21T14:27:45.314Z,9.15
2019-05-21T14:30:14.105Z,7.97
2019-05-21T14:32:42.640Z,13.40
2019-05-21T14:35:11.252Z,7.42
2019-05-21T14:37:42.432Z,6.67
2019-05-21T14:42:39.703Z,12.75
2019-05-21T14:45:08.475Z,5.80
2019-05-21T14:47:36.983Z,15.20
2019-05-21T14:50:10.131Z,126.82
2019-05-21T14:52:38.717Z,149.45
2019-05-21T14:55:10.221Z,136.20
2019-05-21T14:57:39.631Z,334.27
2019-05-21T15:00:22.997Z,99.03
2019-05-21T15:02:51.602Z,101.25
2019-05-21T15:05:20.058Z,58.42
2019-05-21T15:07:49.795Z,13.60
2019-05-21T15:10:20.990Z,11.20
2019-05-21T15:12:49.460Z,15.10
2019-05-21T15:15:18.113Z,19.50
2019-05-21T15:17:46.712Z,8.83
2019-05-21T15:20:17.658Z,30.02
2019-05-21T15:22:46.130Z,28.90
2019-05-21T15:25:14.634Z,15.08
2019-05-21T15:27:43.182Z,46.75
2019-05-21T15:30:11.912Z,25.22
2019-05-21T15:32:40.413Z,15.63
2019-05-21T15:35:09.261Z,19.40
2019-05-21T15:37:37.734Z,17.43
2019-05-21T15:40:06.837Z,16.05
2019-05-21T15:42:35.392Z,23.62
2019-05-21T15:45:05.330Z,16.57
2019-05-21T15:47:33.862Z,7.40
2019-05-21T15:50:02.331Z,23.15
2019-05-21T15:52:30.795Z,11.83
2019-05-21T15:55:06.557Z,13.13
2019-05-21T15:57:32.222Z,9.87
2019-05-21T16:00:00.700Z,10.37
2019-05-21T16:02:30.482Z,7.75
2019-05-21T16:04:59.748Z,10.50
2019-05-21T16:07:28.222Z,8.75
2019-05-21T16:09:56.718Z,8.95
2019-05-21T16:12:25.211Z,6.47
2019-05-21T16:14:53.697Z,18.07
2019-05-21T16:17:22.167Z,13.65
2019-05-21T16:19:50.670Z,8.00
2019-05-21T16:22:19.130Z,9.95
2019-05-21T16:24:47.673Z,9.50
2019-05-21T16:27:16.150Z,9.10
2019-05-21T16:29:44.616Z,12.60
2019-05-21T16:32:13.197Z,11.15
2019-05-21T16:34:41.728Z,10.13
2019-05-21T16:37:10.303Z,13.03
2019-05-21T16:39:38.769Z,12.80
2019-05-21T16:42:07.286Z,9.93
2019-05-21T16:44:35.762Z,16.17
2019-05-21T16:47:04.971Z,22.27
2019-05-21T16:49:33.530Z,24.50
2019-05-21T16:52:02.146Z,24.30
2019-05-21T16:54:30.651Z,22.98
2019-05-21T16:56:59.125Z,14.83
2019-05-21T16:59:27.696Z,13.53
2019-05-21T17:01:56.338Z,16.48
2019-05-21T17:04:24.821Z,11.90
2019-05-21T17:06:53.375Z,19.00
2019-05-21T17:09:22.008Z,20.30
2019-05-21T17:11:59.582Z,24.25
2019-05-21T17:14:20.745Z,43.38
2019-05-21T17:16:49.218Z,24.55
2019-05-21T17:19:17.688Z,22.90
2019-05-21T17:21:46.187Z,30.45
2019-05-21T17:24:14.667Z,29.25
2019-05-21T17:26:43.223Z,19.85
2019-05-21T17:29:11.641Z,17.25
2019-05-21T17:31:40.181Z,33.85
2019-05-21T17:34:08.666Z,23.70
2019-05-21T17:36:39.447Z,19.05
2019-05-21T17:39:08.113Z,17.97
2019-05-21T17:41:36.582Z,31.48
2019-05-21T17:44:05.332Z,21.60
2019-05-21T17:46:33.842Z,18.62
2019-05-21T17:49:02.316Z,35.78
2019-05-21T17:51:30.816Z,14.73
2019-05-21T17:53:59.295Z,22.97
2019-05-21T17:56:27.805Z,11.80
2019-05-21T17:58:56.281Z,16.55
2019-05-21T18:01:24.760Z,14.28
2019-05-21T18:03:53.377Z,16.97
2019-05-21T18:06:22.023Z,17.13
2019-05-21T18:08:50.674Z,29.18
2019-05-21T18:11:19.471Z,24.77
2019-05-21T18:13:49.322Z,16.80
2019-05-21T18:16:18.606Z,35.58
2019-05-21T18:18:47.345Z,13.05
2019-05-21T18:21:16.496Z,54.20
2019-05-21T18:23:45.357Z,101.07
2019-05-21T18:26:14.003Z,29.23
2019-05-21T18:28:42.551Z,45.92
2019-05-21T18:31:11.063Z,40.53
2019-05-21T18:33:39.529Z,29.07
2019-05-21T18:36:08.102Z,26.12
2019-05-21T18:38:36.647Z,34.25
2019-05-21T18:41:05.191Z,32.10
2019-05-21T18:43:33.699Z,36.13
2019-05-21T18:46:02.174Z,26.25
2019-05-21T18:48:30.800Z,26.48
2019-05-21T18:50:59.273Z,26.15
2019-05-21T18:53:27.776Z,29.60
2019-05-21T18:55:56.253Z,28.50
2019-05-21T18:58:24.901Z,24.05
2019-05-21T19:00:53.550Z,27.20
2019-05-21T19:03:25.774Z,19.70
2019-05-21T19:05:52.331Z,20.02
2019-05-21T19:08:20.870Z,19.07
2019-05-21T19:10:49.395Z,34.60
2019-05-21T19:13:21.577Z,22.53
2019-05-21T19:15:50.196Z,27.82
2019-05-21T19:18:18.785Z,23.77
2019-05-21T19:20:49.970Z,22.52
2019-05-21T19:23:18.002Z,21.15
2019-05-21T19:25:46.555Z,25.43
2019-05-21T19:28:15.124Z,24.57
2019-05-21T19:30:43.668Z,30.10
2019-05-21T19:33:12.142Z,20.60
2019-05-21T19:35:40.914Z,16.73
2019-05-21T19:38:09.386Z,23.84
2019-05-21T19:40:37.896Z,114.62
2019-05-21T19:43:06.438Z,132.32
2019-05-21T19:45:35.005Z,76.53
2019-05-21T19:48:03.564Z,40.67
2019-05-21T19:50:32.430Z,28.40
2019-05-21T19:53:00.913Z,32.08
2019-05-21T19:55:29.698Z,38.00
2019-05-21T19:57:58.183Z,39.70
2019-05-21T20:00:28.422Z,51.95
2019-05-21T20:02:56.899Z,60.53
2019-05-21T20:05:25.988Z,45.85
2019-05-21T20:07:54.593Z,53.65
2019-05-21T20:10:23.435Z,30.27
2019-05-21T20:12:52.270Z,28.62
2019-05-21T20:15:20.774Z,25.08
2019-05-21T20:18:06.176Z,30.57
2019-05-21T20:20:23.700Z,47.60
2019-05-21T20:22:52.274Z,44.43
2019-05-21T20:25:22.584Z,40.80
2019-05-21T20:27:52.098Z,49.15
2019-05-21T20:30:22.360Z,36.00
2019-05-21T20:32:51.896Z,41.08
2019-05-21T20:35:22.243Z,37.85
2019-05-21T20:37:52.244Z,37.20
2019-05-21T20:40:22.118Z,51.77
2019-05-21T20:42:51.365Z,43.40
2019-05-21T20:45:21.610Z,60.48
2019-05-21T20:47:52.298Z,46.50
2019-05-21T20:50:22.178Z,45.07
2019-05-21T20:52:51.102Z,48.85
2019-05-21T20:55:22.663Z,50.33
2019-05-21T21:00:23.847Z,48.08
2019-05-21T21:02:53.056Z,65.05
2019-05-21T21:05:21.891Z,80.72
2019-05-21T21:07:51.245Z,77.80
2019-05-21T21:10:20.034Z,61.37
2019-05-21T21:12:48.664Z,55.33
2019-05-21T21:15:17.751Z,50.30
2019-05-21T21:17:46.408Z,57.98
2019-05-21T21:20:14.943Z,59.93
2019-05-21T21:22:43.528Z,48.68
2019-05-21T21:25:12.615Z,55.77
2019-05-21T21:27:41.939Z,45.33
2019-05-21T21:30:10.752Z,54.80
2019-05-21T21:32:39.968Z,40.78
2019-05-21T21:35:10.893Z,44.93
2019-05-21T21:37:39.608Z,63.77
2019-05-21T21:40:09.990Z,49.30
2019-05-21T21:42:39.302Z,46.50
2019-05-21T21:45:08.267Z,46.92
2019-05-21T21:47:37.430Z,40.55
2019-05-21T21:50:08.429Z,44.00
2019-05-21T21:55:09.021Z,42.80
2019-05-21T21:57:38.674Z,34.08
2019-05-21T22:00:19.202Z,43.03
2019-05-21T22:02:47.748Z,46.07
2019-05-21T22:05:16.417Z,37.15
2019-05-21T22:07:45.425Z,35.78
2019-05-21T22:10:14.184Z,33.33
2019-05-21T22:12:43.646Z,40.25
2019-05-21T22:15:12.504Z,39.38
2019-05-21T22:17:41.040Z,49.27
2019-05-21T22:20:10.473Z,47.20
2019-05-21T22:22:39.032Z,39.90
2019-05-21T22:25:08.678Z,35.08
2019-05-21T22:27:37.237Z,31.17
2019-05-21T22:30:07.330Z,35.00
2019-05-21T22:32:35.782Z,29.77
2019-05-21T22:35:05.737Z,31.40
2019-05-21T22:37:34.685Z,34.30
2019-05-21T22:40:03.969Z,32.25
2019-05-21T22:42:32.824Z,32.20
2019-05-21T22:45:08.196Z,32.55
2019-05-21T22:47:31.907Z,27.32
2019-05-21T22:50:00.426Z,30.85
2019-05-21T22:52:28.902Z,26.20
2019-05-21T22:54:57.366Z,28.00
2019-05-21T22:57:26.412Z,24.75
2019-05-21T22:59:54.974Z,23.20
2019-05-21T23:02:25.086Z,23.15
2019-05-21T23:04:53.631Z,27.15
2019-05-21T23:07:22.214Z,29.37
2019-05-21T23:09:50.691Z,26.17
2019-05-21T23:12:19.569Z,23.67
2019-05-21T23:14:48.845Z,27.15
2019-05-21T23:17:17.317Z,29.02
2019-05-21T23:19:45.991Z,32.58
2019-05-21T23:22:18.521Z,29.70
2019-05-21T23:24:48.292Z,31.33
2019-05-21T23:27:17.610Z,37.78
2019-05-21T23:29:46.254Z,34.30
2019-05-21T23:32:15.297Z,31.07
2019-05-21T23:34:45.054Z,48.00
2019-05-21T23:37:16.830Z,34.98
2019-05-21T23:39:46.538Z,34.50
2019-05-21T23:42:28.572Z,33.80
2019-05-21T23:44:45.419Z,32.78
2019-05-21T23:47:15.645Z,34.73
2019-05-21T23:49:44.266Z,35.88
2019-05-21T23:52:13.085Z,33.63
2019-05-21T23:54:41.550Z,33.75
2019-05-21T23:57:13.021Z,35.17
2019-05-21T23:59:42.303Z,32.40
